This is the latest recevied weather packets stored in our database for station/object VK2TRB. If no packets are shown the sender has not sent any weather packets the latest 10 day(s).
| Time | Temp. | Humidity | Pressure | Rain* | Wind** | Luminosity | Snow |
|---|---|---|---|---|---|---|---|
| 1788604615 | 13.89° C | 77% | 1008.5 hPa | 0.51 mm | - | - | - |
| 1788603714 | 13.89° C | 77% | 1008.3 hPa | 0.51 mm | - | - | - |
| 1788602814 | 13.89° C | 78% | 1008.1 hPa | 0.51 mm | - | - | - |
| 1788601916 | 13.89° C | 79% | 1008 hPa | 0.51 mm | - | - | - |
| 1788601015 | 13.89° C | 79% | 1007.7 hPa | 0.51 mm | - | - | - |
| 1788600115 | 13.89° C | 78% | 1007.6 hPa | 0.51 mm | - | - | - |
| 1788599214 | 13.89° C | 77% | 1007.5 hPa | 0.51 mm | - | - | - |
| 1788598315 | 13.89° C | 76% | 1007.2 hPa | 0.51 mm | - | - | - |
| 1788597416 | 14.44° C | 74% | 1007 hPa | 0.51 mm | - | - | - |
| 1788596514 | 15° C | 73% | 1006.9 hPa | 0.51 mm | - | - | - |
| 1788594715 | 16.11° C | 69% | 1006.3 hPa | 0.51 mm | - | - | - |
| 1788593815 | 16.67° C | 70% | 1006.1 hPa | 0.51 mm | - | - | - |
| 1788592915 | 17.22° C | 76% | 1005.8 hPa | 0.51 mm | - | - | - |
| 1788591116 | 17.22° C | 78% | 1005.6 hPa | 0.51 mm | - | - | - |
| 1788590215 | 17.22° C | 78% | 1005.5 hPa | 0.51 mm | - | - | - |
| 1788589315 | 17.22° C | 80% | 1005.6 hPa | 0.51 mm | - | - | - |
| 1788588416 | 17.22° C | 81% | 1005.5 hPa | 0.51 mm | - | - | - |
| 1788587515 | 17.22° C | 84% | 1005.6 hPa | 0.51 mm | - | - | - |
| 1788586616 | 17.22° C | 83% | 1006 hPa | 0.51 mm | - | - | - |
| 1788585715 | 16.67° C | 83% | 1006.1 hPa | 0.51 mm | - | - | - |
| 1788584815 | 16.67° C | 83% | 1005.9 hPa | 0.51 mm | - | - | - |
| 1788583916 | 16.67° C | 83% | 1005.8 hPa | 0.51 mm | - | - | - |
| 1788583016 | 16.67° C | 85% | 1005.7 hPa | 0.51 mm | - | - | - |
| 1788582117 | 16.11° C | 87% | 1005.6 hPa | 0.51 mm | - | - | - |
| 1788581216 | 16.11° C | 89% | 1005.6 hPa | 0.51 mm | - | - | - |
* Rain latest hour (hover to see other rain measurements)
** Current wind speed in m/s (hover to see current wind gust speed)